Time;durP1;ratioP1;P1;durP2;ratioP2;P2;SDS_P1;SDS_P2;PMS_P1;PMS_P2;Temp;Humidity;BMP_temperature;BMP_pressure;BME280_temperature;BME280_humidity;BME280_pressure;Samples;Min_cycle;Max_cycle;Signal;HPM_P1;HPM_P2
2023/05/11 00:00:29;;;;;;;;;;;;;;;11.62;70.56;100136.56;5111121;28;20348;-41
2023/05/11 00:02:54;;;;;;;;;;;;;;;11.38;71.31;100146.72;5111313;28;19972;-42
2023/05/11 00:05:20;;;;;;;;;;;;;;;11.34;72.22;100148.16;5110803;28;19919;-42
2023/05/11 00:07:45;;;;;;;;;;;;;;;11.55;70.94;100144.53;5110975;28;19951;-42
2023/05/11 00:10:10;;;;;;;;;;;;;;;11.09;73.20;100151.31;5111093;28;19947;-42
2023/05/11 00:12:35;;;;;;;;;;;;;;;11.36;71.61;100146.09;5111077;28;20349;-42
2023/05/11 00:15:01;;;;;;;;;;;;;;;11.38;71.16;100149.38;5111182;28;19968;-42
2023/05/11 00:17:26;;;;;;;;;;;;;;;12.06;69.33;100144.06;5111118;28;20257;-42
2023/05/11 00:19:52;;;;;;;;;;;;;;;12.07;68.93;100144.88;5111286;28;19919;-42
2023/05/11 00:22:17;;;;;;;;;;;;;;;12.03;69.04;100148.97;5111135;28;19912;-42
2023/05/11 00:24:42;;;;;;;;;;;;;;;12.06;69.20;100157.41;5111099;28;20017;-42
2023/05/11 00:27:07;;;;;;;;;;;;;;;11.60;70.61;100158.09;5111021;28;19919;-42
2023/05/11 00:29:33;;;;;;;;;;;;;;;11.55;70.00;100157.84;5111163;28;20022;-41
2023/05/11 00:31:58;;;;;;;;;;;;;;;11.45;72.03;100150.25;5110876;28;19912;-41
2023/05/11 00:34:23;;;;;;;;;;;;;;;11.60;71.65;100158.09;5108303;28;19923;-41
2023/05/11 00:36:49;;;;;;;;;;;;;;;11.62;71.65;100161.38;5090688;28;19951;-41
2023/05/11 00:39:14;;;;;;;;;;;;;;;11.75;71.21;100165.94;5091024;28;19920;-43
2023/05/11 00:41:40;;;;;;;;;;;;;;;11.97;70.14;100169.28;5090284;28;19939;-42
2023/05/11 00:44:05;;;;;;;;;;;;;;;11.92;70.10;100164.56;5090414;28;20049;-42
2023/05/11 00:46:30;;;;;;;;;;;;;;;12.09;69.59;100165.00;5090521;28;20349;-42
2023/05/11 00:48:56;;;;;;;;;;;;;;;11.77;70.51;100163.88;5090317;28;20421;-42
2023/05/11 00:51:21;;;;;;;;;;;;;;;11.77;69.97;100157.75;5090492;28;19958;-42
2023/05/11 00:53:47;;;;;;;;;;;;;;;11.84;70.66;100161.22;5091669;28;19995;-42
2023/05/11 00:56:13;;;;;;;;;;;;;;;12.09;69.18;100166.88;5094551;28;19920;-43
2023/05/11 00:58:38;;;;;;;;;;;;;;;11.68;70.84;100165.09;5094516;28;20376;-42
2023/05/11 01:01:04;;;;;;;;;;;;;;;11.68;70.36;100165.09;5094707;28;20315;-42
2023/05/11 01:03:30;;;;;;;;;;;;;;;11.91;70.49;100165.56;5094288;28;20493;-42
2023/05/11 01:06:10;;;;;;;;;;;;;;;11.79;70.64;100161.03;5094741;28;19969;-42
2023/05/11 01:08:41;;;;;;;;;;;;;;;11.99;70.30;100167.22;5094201;28;20395;-42
2023/05/11 01:11:06;;;;;;;;;;;;;;;12.14;69.23;100156.38;5094532;28;19912;-42
2023/05/11 01:13:51;;;;;;;;;;;;;;;12.29;68.91;100162.34;5094041;28;19919;-42
2023/05/11 01:16:18;;;;;;;;;;;;;;;12.20;69.27;100165.44;5094267;28;20286;-43
2023/05/11 01:18:58;;;;;;;;;;;;;;;11.80;70.69;100165.31;5093850;28;20003;-43
2023/05/11 01:21:24;;;;;;;;;;;;;;;11.85;70.69;100169.03;5094258;28;19995;-42
2023/05/11 01:24:10;;;;;;;;;;;;;;;11.58;70.89;100177.97;5093623;28;19924;-42
2023/05/11 01:26:54;;;;;;;;;;;;;;;11.37;72.23;100182.41;5089653;28;19920;-42
2023/05/11 01:29:28;;;;;;;;;;;;;;;11.46;72.48;100169.72;5093855;28;19920;-42
2023/05/11 01:31:55;;;;;;;;;;;;;;;11.46;72.36;100173.22;5093843;28;19977;-42
2023/05/11 01:34:22;;;;;;;;;;;;;;;11.42;72.83;100174.59;5093990;28;19972;-42
2023/05/11 01:37:08;;;;;;;;;;;;;;;11.31;73.42;100180.53;5093437;28;20558;-42
2023/05/11 01:39:36;;;;;;;;;;;;;;;11.76;71.59;100172.91;5093618;28;20372;-42
2023/05/11 01:42:10;;;;;;;;;;;;;;;11.82;71.31;100174.78;5093656;28;19962;-42
2023/05/11 01:44:41;;;;;;;;;;;;;;;11.52;71.85;100175.09;5093653;28;19923;-42
2023/05/11 01:47:07;;;;;;;;;;;;;;;12.01;70.58;100181.19;5113152;28;20325;-42
2023/05/11 01:49:35;;;;;;;;;;;;;;;11.82;70.68;100168.59;5113673;28;19916;-42
2023/05/11 01:52:01;;;;;;;;;;;;;;;12.04;70.56;100164.78;5113736;28;20368;-42
2023/05/11 01:54:27;;;;;;;;;;;;;;;11.76;70.24;100172.09;5096638;28;19919;-42
2023/05/11 01:56:53;;;;;;;;;;;;;;;11.89;71.01;100167.63;5093096;28;19968;-42
2023/05/11 01:59:19;;;;;;;;;;;;;;;12.08;70.41;100165.22;5093616;28;19943;-42
2023/05/11 02:01:45;;;;;;;;;;;;;;;11.31;72.59;100161.88;5092974;28;20075;-42
2023/05/11 02:04:10;;;;;;;;;;;;;;;11.52;72.81;100160.94;5093129;28;20046;-42
2023/05/11 02:06:36;;;;;;;;;;;;;;;11.76;71.78;100167.56;5091912;28;19947;-42
2023/05/11 02:09:02;;;;;;;;;;;;;;;12.00;70.73;100162.75;5092807;28;19931;-42
2023/05/11 02:11:28;;;;;;;;;;;;;;;10.99;74.63;100169.50;5093146;28;19911;-42
2023/05/11 02:13:55;;;;;;;;;;;;;;;11.61;72.86;100162.38;5093050;28;19942;-42
2023/05/11 02:16:22;;;;;;;;;;;;;;;11.58;71.46;100160.13;5092639;28;20375;-42
2023/05/11 02:18:47;;;;;;;;;;;;;;;11.70;71.80;100171.03;5092753;28;19912;-44
2023/05/11 02:21:14;;;;;;;;;;;;;;;11.51;72.34;100168.09;5092983;28;19938;-41
2023/05/11 02:23:40;;;;;;;;;;;;;;;11.11;73.57;100167.09;5092738;28;19920;-41
2023/05/11 02:26:07;;;;;;;;;;;;;;;10.74;75.48;100167.28;5092929;28;19926;-42
2023/05/11 02:28:32;;;;;;;;;;;;;;;10.12;78.81;100165.28;5085317;28;19927;-42
2023/05/11 02:31:00;;;;;;;;;;;;;;;10.45;77.40;100172.78;5094842;28;19912;-42
2023/05/11 02:33:30;;;;;;;;;;;;;;;10.39;77.71;100170.88;5109613;28;19969;-42
2023/05/11 02:35:56;;;;;;;;;;;;;;;10.63;76.52;100167.81;5092599;28;19912;-42
2023/05/11 02:38:24;;;;;;;;;;;;;;;10.45;76.44;100170.09;5092231;28;19916;-42
2023/05/11 02:40:53;;;;;;;;;;;;;;;10.18;78.14;100173.34;5092692;28;19916;-42
2023/05/11 02:43:20;;;;;;;;;;;;;;;10.27;78.79;100170.56;5092342;28;20007;-42
2023/05/11 02:45:47;;;;;;;;;;;;;;;10.47;76.87;100165.41;5100962;28;19918;-42
2023/05/11 02:48:18;;;;;;;;;;;;;;;10.50;76.90;100168.53;5112716;28;19912;-42
2023/05/11 02:50:44;;;;;;;;;;;;;;;10.18;78.61;100168.03;5112638;28;19919;-42
2023/05/11 02:53:13;;;;;;;;;;;;;;;10.56;77.07;100173.06;5106785;28;19916;-42
2023/05/11 02:55:40;;;;;;;;;;;;;;;10.65;76.71;100175.59;5092342;28;20355;-42
2023/05/11 02:58:06;;;;;;;;;;;;;;;11.01;75.25;100180.75;5092261;28;19998;-41
2023/05/11 03:00:31;;;;;;;;;;;;;;;11.21;73.66;100172.06;5103014;28;20003;-42
2023/05/11 03:02:58;;;;;;;;;;;;;;;11.34;74.02;100180.94;5091977;28;20490;-42
2023/05/11 03:05:23;;;;;;;;;;;;;;;11.33;72.85;100183.81;5092069;28;20311;-42
2023/05/11 03:07:48;;;;;;;;;;;;;;;10.99;74.28;100188.13;5092180;28;19942;-42
2023/05/11 03:10:14;;;;;;;;;;;;;;;10.98;74.28;100190.97;5092144;28;19979;-42
2023/05/11 03:12:39;;;;;;;;;;;;;;;11.05;74.79;100187.34;5092110;28;19922;-42
2023/05/11 03:15:05;;;;;;;;;;;;;;;11.02;74.98;100185.06;5091975;28;20007;-42
2023/05/11 03:17:31;;;;;;;;;;;;;;;10.93;74.92;100188.91;5091628;28;20023;-42
2023/05/11 03:19:57;;;;;;;;;;;;;;;10.69;75.95;100195.50;5091696;28;20109;-42
2023/05/11 03:22:23;;;;;;;;;;;;;;;10.56;75.57;100193.53;5091597;28;19912;-42
2023/05/11 03:24:49;;;;;;;;;;;;;;;10.57;76.31;100192.53;5090744;28;19943;-42
2023/05/11 03:27:15;;;;;;;;;;;;;;;10.52;76.57;100197.59;5089656;28;20363;-42
2023/05/11 03:29:42;;;;;;;;;;;;;;;10.87;75.40;100195.84;5091922;28;19916;-41
2023/05/11 03:32:08;;;;;;;;;;;;;;;10.83;75.31;100191.06;5086918;28;19951;-42
2023/05/11 03:34:33;;;;;;;;;;;;;;;10.73;75.21;100199.41;5091282;28;20003;-42
2023/05/11 03:36:59;;;;;;;;;;;;;;;10.56;77.13;100198.88;5091643;28;19912;-42
2023/05/11 03:39:26;;;;;;;;;;;;;;;10.79;76.67;100195.16;5091228;28;19943;-42
2023/05/11 03:41:52;;;;;;;;;;;;;;;11.34;76.17;100191.59;5101448;28;20531;-42
2023/05/11 03:44:21;;;;;;;;;;;;;;;11.23;74.64;100199.31;5097255;28;19919;-42
2023/05/11 03:46:46;;;;;;;;;;;;;;;11.07;75.15;100203.94;5094134;28;19992;-42
2023/05/11 03:49:12;;;;;;;;;;;;;;;11.07;74.92;100203.13;5090598;28;19916;-42
2023/05/11 03:51:38;;;;;;;;;;;;;;;10.83;75.46;100205.22;5091177;28;19920;-47
2023/05/11 03:54:04;;;;;;;;;;;;;;;10.80;75.69;100202.13;5090552;28;19912;-42
2023/05/11 03:56:30;;;;;;;;;;;;;;;10.67;75.92;100195.69;5091121;28;19916;-41
2023/05/11 03:58:55;;;;;;;;;;;;;;;10.64;76.39;100197.91;5087381;28;19916;-42
2023/05/11 04:01:21;;;;;;;;;;;;;;;10.83;75.93;100194.56;5089996;28;19928;-42
2023/05/11 04:03:50;;;;;;;;;;;;;;;10.57;76.30;100206.66;5091296;28;19920;-42
2023/05/11 04:06:16;;;;;;;;;;;;;;;10.67;76.67;100206.31;5091275;28;19916;-42
2023/05/11 04:08:42;;;;;;;;;;;;;;;10.42;77.65;100200.59;5089576;28;20552;-43
2023/05/11 04:11:07;;;;;;;;;;;;;;;9.90;79.36;100202.50;5091173;28;19919;-43
2023/05/11 04:13:33;;;;;;;;;;;;;;;10.54;78.74;100211.53;5090780;28;19956;-43
2023/05/11 04:15:58;;;;;;;;;;;;;;;10.32;78.61;100208.91;5091145;28;19951;-43
2023/05/11 04:18:23;;;;;;;;;;;;;;;10.13;78.61;100210.31;5090719;28;20081;-43
2023/05/11 04:20:49;;;;;;;;;;;;;;;10.09;79.79;100211.72;5090397;28;20404;-42
2023/05/11 04:23:14;;;;;;;;;;;;;;;10.35;79.14;100213.81;5090206;28;20342;-42
2023/05/11 04:25:39;;;;;;;;;;;;;;;10.87;77.46;100209.16;5090437;28;19927;-42
2023/05/11 04:28:05;;;;;;;;;;;;;;;10.59;77.16;100208.31;5089136;28;20392;-42
2023/05/11 04:30:30;;;;;;;;;;;;;;;10.79;76.10;100216.44;5090160;28;19997;-43
2023/05/11 04:32:55;;;;;;;;;;;;;;;11.25;74.56;100214.09;5088087;28;20327;-43
2023/05/11 04:35:20;;;;;;;;;;;;;;;11.20;74.12;100226.38;5090844;28;19959;-43
2023/05/11 04:37:46;;;;;;;;;;;;;;;11.84;72.70;100212.72;5091451;28;19958;-43
2023/05/11 04:40:11;;;;;;;;;;;;;;;12.17;71.33;100221.88;5090908;28;19916;-43
2023/05/11 04:42:37;;;;;;;;;;;;;;;11.80;71.60;100218.66;5090627;28;20303;-43
2023/05/11 04:45:02;;;;;;;;;;;;;;;11.70;71.81;100222.50;5090682;28;20006;-43
2023/05/11 04:47:27;;;;;;;;;;;;;;;11.77;74.78;100216.41;5090646;28;19999;-43
2023/05/11 04:49:52;;;;;;;;;;;;;;;14.66;83.17;100209.25;5090494;28;19916;-44
2023/05/11 04:52:18;;;;;;;;;;;;;;;14.53;62.70;100212.81;5090554;28;19935;-43
2023/05/11 04:54:43;;;;;;;;;;;;;;;13.75;64.79;100205.06;5091093;28;19991;-43
2023/05/11 04:57:08;;;;;;;;;;;;;;;13.11;65.23;100210.97;5091124;28;19927;-43
2023/05/11 04:59:34;;;;;;;;;;;;;;;12.02;69.93;100220.19;5090582;28;20337;-43
2023/05/11 05:01:59;;;;;;;;;;;;;;;11.74;71.49;100225.59;5090956;28;19916;-43
2023/05/11 05:04:24;;;;;;;;;;;;;;;11.72;72.07;100219.66;5091109;28;20081;-43
2023/05/11 05:06:50;;;;;;;;;;;;;;;11.64;72.50;100214.50;5091306;28;19964;-43
2023/05/11 05:09:15;;;;;;;;;;;;;;;11.27;73.32;100241.38;5090726;28;20011;-43
2023/05/11 05:11:40;;;;;;;;;;;;;;;11.06;74.34;100231.63;5091160;28;19970;-43
2023/05/11 05:14:06;;;;;;;;;;;;;;;11.32;73.48;100232.78;5090638;28;20353;-42
2023/05/11 05:16:31;;;;;;;;;;;;;;;11.18;74.37;100233.75;5091049;28;19912;-43
2023/05/11 05:18:56;;;;;;;;;;;;;;;11.00;75.03;100237.69;5090895;28;19955;-43
2023/05/11 05:21:22;;;;;;;;;;;;;;;11.15;74.55;100213.63;5091217;28;19980;-42
2023/05/11 05:23:47;;;;;;;;;;;;;;;11.74;71.81;100218.41;5091053;28;19916;-42
2023/05/11 05:26:12;;;;;;;;;;;;;;;11.55;72.40;100219.97;5090796;28;19920;-42
2023/05/11 05:28:38;;;;;;;;;;;;;;;12.24;70.22;100228.03;5090928;28;19973;-42
2023/05/11 05:31:03;;;;;;;;;;;;;;;12.23;70.21;100218.41;5091389;28;19994;-42
2023/05/11 05:33:29;;;;;;;;;;;;;;;12.47;69.66;100215.16;5090778;28;19923;-42
2023/05/11 05:35:54;;;;;;;;;;;;;;;12.57;68.84;100222.75;5091206;28;19912;-42
2023/05/11 05:38:19;;;;;;;;;;;;;;;12.33;69.78;100230.28;5091375;28;19973;-42
2023/05/11 05:40:45;;;;;;;;;;;;;;;12.54;69.87;100238.34;5092481;28;19919;-42
2023/05/11 05:43:10;;;;;;;;;;;;;;;12.74;68.83;100239.19;5094615;28;19994;-41
2023/05/11 05:45:35;;;;;;;;;;;;;;;12.95;67.16;100235.47;5094360;28;19912;-44
2023/05/11 05:48:01;;;;;;;;;;;;;;;12.63;67.72;100256.63;5094855;28;19912;-41
2023/05/11 05:50:26;;;;;;;;;;;;;;;12.19;68.96;100249.19;5094822;28;19912;-42
2023/05/11 05:52:52;;;;;;;;;;;;;;;11.93;70.33;100246.22;5094523;28;19916;-42
2023/05/11 05:55:17;;;;;;;;;;;;;;;12.01;69.60;100250.53;5094250;28;19912;-42
2023/05/11 05:57:42;;;;;;;;;;;;;;;12.21;69.88;100231.13;5094312;28;19915;-43
2023/05/11 06:00:08;;;;;;;;;;;;;;;12.33;69.14;100242.81;5094385;28;20333;-42
2023/05/11 06:02:33;;;;;;;;;;;;;;;12.82;67.17;100240.81;5094259;28;20368;-42
2023/05/11 06:04:59;;;;;;;;;;;;;;;13.10;66.18;100245.94;5094372;28;19912;-42
2023/05/11 06:07:24;;;;;;;;;;;;;;;13.42;65.87;100235.41;5094363;28;20337;-43
2023/05/11 06:09:49;;;;;;;;;;;;;;;12.66;66.21;100236.69;5094341;28;20011;-42
2023/05/11 06:12:15;;;;;;;;;;;;;;;12.40;67.53;100241.00;5093867;28;19943;-42
2023/05/11 06:14:40;;;;;;;;;;;;;;;12.42;66.75;100270.97;5093827;28;19981;-42
2023/05/11 06:17:05;;;;;;;;;;;;;;;12.32;68.00;100255.34;5093840;28;20003;-44
2023/05/11 06:19:31;;;;;;;;;;;;;;;11.98;68.31;100242.16;5093811;28;19942;-42
2023/05/11 06:21:56;;;;;;;;;;;;;;;12.27;67.18;100247.13;5093439;28;19912;-42
2023/05/11 06:24:21;;;;;;;;;;;;;;;12.44;65.90;100260.91;5092294;28;20030;-42
2023/05/11 06:26:47;;;;;;;;;;;;;;;12.45;65.62;100241.22;5091932;28;20035;-42
2023/05/11 06:29:12;;;;;;;;;;;;;;;12.89;65.00;100258.50;5092459;28;19916;-42
2023/05/11 06:31:37;;;;;;;;;;;;;;;12.63;63.80;100251.28;5092246;28;19964;-42
2023/05/11 06:34:03;;;;;;;;;;;;;;;13.01;63.54;100245.31;5092978;28;19919;-43
2023/05/11 06:36:28;;;;;;;;;;;;;;;13.22;62.53;100238.09;5092421;28;19912;-43
2023/05/11 06:38:54;;;;;;;;;;;;;;;12.96;62.48;100253.13;5091481;28;19940;-42
2023/05/11 06:41:20;;;;;;;;;;;;;;;12.82;62.54;100236.28;5091267;28;20272;-42
2023/05/11 06:43:45;;;;;;;;;;;;;;;13.03;62.17;100239.78;5094941;28;19923;-42
2023/05/11 06:46:15;;;;;;;;;;;;;;;13.34;62.46;100251.69;5072760;28;20288;-42
2023/05/11 06:48:40;;;;;;;;;;;;;;;13.56;62.55;100247.72;5073313;28;20102;-42
2023/05/11 06:51:08;;;;;;;;;;;;;;;13.40;61.50;100238.31;5072063;28;19952;-42
2023/05/11 06:53:33;;;;;;;;;;;;;;;13.69;61.33;100239.66;5072429;28;19919;-42
2023/05/11 06:55:59;;;;;;;;;;;;;;;13.41;62.11;100255.16;5088318;28;19913;-42
2023/05/11 06:58:24;;;;;;;;;;;;;;;13.35;61.83;100245.31;5092766;28;19962;-44
2023/05/11 07:00:49;;;;;;;;;;;;;;;14.22;58.79;100243.06;5092690;28;19981;-43
2023/05/11 07:03:15;;;;;;;;;;;;;;;14.26;59.53;100234.41;5091191;28;20006;-43
2023/05/11 07:05:40;;;;;;;;;;;;;;;14.41;59.44;100236.78;5091312;28;19955;-43
2023/05/11 07:08:05;;;;;;;;;;;;;;;14.46;57.85;100236.94;5091383;28;20392;-43
2023/05/11 07:10:31;;;;;;;;;;;;;;;14.53;57.74;100236.09;5091373;28;19912;-43
2023/05/11 07:12:56;;;;;;;;;;;;;;;13.74;59.36;100228.28;5092324;28;20311;-43
2023/05/11 07:15:21;;;;;;;;;;;;;;;13.68;58.99;100219.25;5091938;28;19916;-43
2023/05/11 07:17:47;;;;;;;;;;;;;;;13.55;58.91;100231.88;5092014;28;19915;-43
2023/05/11 07:20:13;;;;;;;;;;;;;;;12.96;60.55;100234.44;5092332;28;19923;-42
2023/05/11 07:22:38;;;;;;;;;;;;;;;13.71;57.56;100203.81;5091566;28;19912;-43
2023/05/11 07:25:03;;;;;;;;;;;;;;;14.38;57.25;100239.09;5091749;28;19920;-43
2023/05/11 07:27:30;;;;;;;;;;;;;;;14.46;56.05;100220.06;5091663;28;20303;-42
2023/05/11 07:29:55;;;;;;;;;;;;;;;14.39;56.22;100221.97;5091787;28;20010;-43
2023/05/11 07:32:20;;;;;;;;;;;;;;;14.76;54.29;100236.34;5091916;28;20011;-43
2023/05/11 07:34:46;;;;;;;;;;;;;;;13.81;56.56;100244.34;5091566;28;19912;-42
2023/05/11 07:37:11;;;;;;;;;;;;;;;14.14;56.71;100248.69;5091797;28;19912;-43
2023/05/11 07:39:36;;;;;;;;;;;;;;;14.23;56.52;100244.72;5091952;28;19912;-43
2023/05/11 07:42:02;;;;;;;;;;;;;;;14.69;55.79;100232.91;5091536;28;20331;-43
2023/05/11 07:44:28;;;;;;;;;;;;;;;14.60;55.45;100248.44;5091610;28;19920;-43
2023/05/11 07:46:53;;;;;;;;;;;;;;;14.93;55.27;100225.91;5091576;28;19912;-42
2023/05/11 07:49:19;;;;;;;;;;;;;;;14.51;55.47;100232.78;5091294;28;20366;-43
2023/05/11 07:51:44;;;;;;;;;;;;;;;14.73;55.26;100222.56;5091495;28;19912;-43
2023/05/11 07:54:09;;;;;;;;;;;;;;;14.77;56.33;100213.06;5090959;28;20316;-43
2023/05/11 07:56:35;;;;;;;;;;;;;;;15.34;56.16;100220.94;5091843;28;20009;-43
2023/05/11 07:59:00;;;;;;;;;;;;;;;15.15;55.54;100226.28;5091144;28;19916;-43
2023/05/11 08:01:25;;;;;;;;;;;;;;;15.33;55.40;100225.50;5091236;28;19911;-43
2023/05/11 08:03:51;;;;;;;;;;;;;;;15.61;55.06;100222.28;5090611;28;20414;-42
2023/05/11 08:06:16;;;;;;;;;;;;;;;15.68;54.17;100226.75;5091270;28;19951;-43
2023/05/11 08:08:41;;;;;;;;;;;;;;;15.88;53.37;100218.47;5091104;28;19916;-43
2023/05/11 08:11:07;;;;;;;;;;;;;;;15.38;54.57;100231.03;5091353;28;19916;-42
2023/05/11 08:13:33;;;;;;;;;;;;;;;14.62;56.93;100229.44;5090862;28;19959;-42
2023/05/11 08:15:58;;;;;;;;;;;;;;;14.56;58.30;100232.97;5091166;28;19923;-42
2023/05/11 08:18:23;;;;;;;;;;;;;;;14.69;57.23;100222.19;5091030;28;19912;-43
2023/05/11 08:20:49;;;;;;;;;;;;;;;15.03;57.08;100228.06;5091182;28;19912;-43
2023/05/11 08:23:17;;;;;;;;;;;;;;;15.47;55.10;100223.47;5091053;28;19974;-43
2023/05/11 08:25:52;;;;;;;;;;;;;;;15.24;55.66;100229.50;5091162;28;20078;-42
2023/05/11 08:28:18;;;;;;;;;;;;;;;15.49;55.00;100229.44;5090917;28;19924;-42
2023/05/11 08:30:43;;;;;;;;;;;;;;;16.20;53.00;100224.41;5090858;28;19912;-43
2023/05/11 08:33:09;;;;;;;;;;;;;;;15.82;53.56;100229.09;5090935;28;20086;-42
2023/05/11 08:35:34;;;;;;;;;;;;;;;16.04;53.43;100215.16;5090806;28;20015;-42
2023/05/11 08:37:59;;;;;;;;;;;;;;;15.44;54.84;100235.50;5090952;28;19912;-44
2023/05/11 08:40:26;;;;;;;;;;;;;;;15.78;53.34;100213.66;5090967;28;19919;-42
2023/05/11 08:42:53;;;;;;;;;;;;;;;15.54;54.87;100228.78;5090822;28;19920;-43
2023/05/11 08:45:19;;;;;;;;;;;;;;;14.55;57.10;100228.66;5090927;28;20033;-43
2023/05/11 08:47:45;;;;;;;;;;;;;;;14.64;56.24;100230.03;5091035;28;19912;-43
2023/05/11 08:50:10;;;;;;;;;;;;;;;15.70;54.82;100219.31;5090990;28;20404;-42
2023/05/11 08:52:36;;;;;;;;;;;;;;;16.18;53.63;100221.16;5090398;28;19924;-45
2023/05/11 08:55:02;;;;;;;;;;;;;;;15.51;54.34;100223.84;5090141;28;19912;-42
2023/05/11 08:57:30;;;;;;;;;;;;;;;16.05;53.20;100214.13;5090671;28;19956;-42
2023/05/11 08:59:55;;;;;;;;;;;;;;;15.75;53.90;100211.44;5091081;28;19913;-42
2023/05/11 09:02:21;;;;;;;;;;;;;;;15.92;53.26;100211.63;5090694;28;20403;-42
2023/05/11 09:04:46;;;;;;;;;;;;;;;15.97;52.93;100207.22;5090326;28;20011;-43
2023/05/11 09:07:14;;;;;;;;;;;;;;;16.54;50.82;100214.81;5090451;28;19955;-43
2023/05/11 09:09:40;;;;;;;;;;;;;;;16.53;50.74;100212.38;5090405;28;19913;-44
2023/05/11 09:12:07;;;;;;;;;;;;;;;15.67;53.43;100209.00;5090422;28;20347;-42
2023/05/11 09:14:32;;;;;;;;;;;;;;;15.69;53.32;100212.28;5091429;28;19912;-43
2023/05/11 09:16:57;;;;;;;;;;;;;;;15.69;52.07;100201.53;5095002;28;19961;-43
2023/05/11 09:19:23;;;;;;;;;;;;;;;15.71;52.41;100207.53;5094444;28;19912;-43
2023/05/11 09:21:50;;;;;;;;;;;;;;;15.60;52.99;100207.22;5094347;28;19923;-43
2023/05/11 09:24:16;;;;;;;;;;;;;;;15.86;52.57;100201.78;5094136;28;20380;-42
2023/05/11 09:26:41;;;;;;;;;;;;;;;15.44;53.25;100197.94;5094187;28;19930;-43
2023/05/11 09:29:06;;;;;;;;;;;;;;;15.54;52.55;100192.03;5094617;28;19916;-43
2023/05/11 09:31:45;;;;;;;;;;;;;;;15.42;52.71;100181.25;5093848;28;19919;-43
2023/05/11 09:34:13;;;;;;;;;;;;;;;16.17;51.68;100176.56;5094075;28;19920;-43
2023/05/11 09:36:43;;;;;;;;;;;;;;;15.48;52.02;100178.69;5093329;28;19974;-42
2023/05/11 09:39:08;;;;;;;;;;;;;;;15.80;52.19;100171.31;5093974;28;20360;-42
2023/05/11 09:41:34;;;;;;;;;;;;;;;16.61;49.52;100166.38;5094178;28;20033;-44
2023/05/11 09:44:13;;;;;;;;;;;;;;;16.77;48.37;100176.44;5093497;28;19916;-42
2023/05/11 09:46:40;;;;;;;;;;;;;;;16.17;48.46;100168.53;5093758;28;20320;-42
2023/05/11 09:49:06;;;;;;;;;;;;;;;15.80;49.51;100161.41;5093594;28;19961;-42
2023/05/11 09:51:32;;;;;;;;;;;;;;;16.20;49.46;100159.97;5093487;28;20368;-44
2023/05/11 09:53:59;;;;;;;;;;;;;;;16.80;47.94;100159.00;5093883;28;19968;-43
2023/05/11 09:56:47;;;;;;;;;;;;;;;16.66;48.54;100166.50;5093694;28;19970;-43
2023/05/11 09:59:16;;;;;;;;;;;;;;;17.00;48.05;100153.28;5093498;28;20407;-43
2023/05/11 10:01:42;;;;;;;;;;;;;;;17.47;47.12;100157.75;5093988;28;19919;-43
2023/05/11 10:04:10;;;;;;;;;;;;;;;17.72;46.69;100165.50;5093519;28;19916;-43
2023/05/11 10:06:44;;;;;;;;;;;;;;;17.96;45.71;100164.38;5093472;28;19912;-42
2023/05/11 10:09:10;;;;;;;;;;;;;;;18.33;44.90;100166.63;5093802;28;19912;-44
2023/05/11 10:11:37;;;;;;;;;;;;;;;18.28;45.37;100155.75;5093554;28;19919;-43
2023/05/11 10:14:02;;;;;;;;;;;;;;;18.02;45.56;100153.69;5093067;28;19916;-43
2023/05/11 10:16:28;;;;;;;;;;;;;;;17.95;45.33;100148.44;5093114;28;19912;-43
2023/05/11 10:18:53;;;;;;;;;;;;;;;17.58;46.48;100143.44;5093336;28;19983;-42
2023/05/11 10:21:19;;;;;;;;;;;;;;;17.16;47.28;100141.81;5093260;28;19963;-42
2023/05/11 10:23:44;;;;;;;;;;;;;;;17.34;46.56;100134.63;5093106;28;19920;-42
2023/05/11 10:26:10;;;;;;;;;;;;;;;17.84;46.11;100134.00;5092631;28;19920;-42
2023/05/11 10:28:36;;;;;;;;;;;;;;;17.86;45.84;100137.28;5093371;28;19926;-42
2023/05/11 10:31:02;;;;;;;;;;;;;;;18.32;45.10;100137.22;5092821;28;19916;-42
2023/05/11 10:33:28;;;;;;;;;;;;;;;17.48;46.04;100133.31;5093353;28;19977;-42
2023/05/11 10:35:54;;;;;;;;;;;;;;;16.92;48.10;100127.56;5093132;28;19912;-44
2023/05/11 10:38:20;;;;;;;;;;;;;;;17.02;47.93;100127.00;5092816;28;19972;-43
2023/05/11 10:40:46;;;;;;;;;;;;;;;17.13;47.26;100125.31;5092552;28;20353;-44
2023/05/11 10:43:30;;;;;;;;;;;;;;;16.95;47.03;100134.38;5092981;28;19916;-42
2023/05/11 10:46:31;;;;;;;;;;;;;;;17.03;47.60;100139.38;5092955;28;19922;-43
2023/05/11 10:49:15;;;;;;;;;;;;;;;17.63;44.77;100129.25;5050728;28;19955;-42
2023/05/11 10:51:51;;;;;;;;;;;;;;;18.55;43.79;100128.16;5089074;28;19912;-43
2023/05/11 10:54:35;;;;;;;;;;;;;;;18.38;43.67;100117.38;5093024;28;19935;-43
2023/05/11 10:57:12;;;;;;;;;;;;;;;17.73;44.92;100110.63;5092684;28;20089;-41
2023/05/11 10:59:41;;;;;;;;;;;;;;;17.68;45.71;100114.03;5092143;28;19918;-42
2023/05/11 11:02:07;;;;;;;;;;;;;;;18.05;45.22;100112.78;5091335;28;19918;-43
2023/05/11 11:04:46;;;;;;;;;;;;;;;18.53;44.82;100120.31;5092030;28;19916;-42
2023/05/11 11:07:16;;;;;;;;;;;;;;;17.97;44.33;100112.16;5092642;28;19958;-42
2023/05/11 11:09:55;;;;;;;;;;;;;;;18.12;44.74;100116.16;5092085;28;19950;-41
2023/05/11 11:12:22;;;;;;;;;;;;;;;18.64;44.05;100107.81;5092486;28;19969;-42
2023/05/11 11:14:53;;;;;;;;;;;;;;;17.50;45.27;100119.63;5092300;28;20102;-43
2023/05/11 11:17:18;;;;;;;;;;;;;;;17.32;46.26;100113.34;5092279;28;19994;-42
2023/05/11 11:19:43;;;;;;;;;;;;;;;17.46;45.06;100102.28;5092138;28;19954;-42
2023/05/11 11:22:27;;;;;;;;;;;;;;;18.20;43.84;100112.22;5091859;28;19912;-42
2023/05/11 11:24:53;;;;;;;;;;;;;;;18.37;43.89;100104.97;5092304;28;20060;-42
2023/05/11 11:27:18;;;;;;;;;;;;;;;17.95;44.70;100099.97;5091715;28;20368;-42
2023/05/11 11:30:03;;;;;;;;;;;;;;;18.00;43.68;100102.78;5091550;28;19916;-42
2023/05/11 11:32:28;;;;;;;;;;;;;;;17.86;43.67;100096.06;5090077;28;19946;-42
2023/05/11 11:34:54;;;;;;;;;;;;;;;18.24;43.34;100097.22;5089652;28;19915;-42
2023/05/11 11:37:21;;;;;;;;;;;;;;;18.71;42.99;100081.47;5091980;28;20401;-43
2023/05/11 11:39:48;;;;;;;;;;;;;;;18.16;43.38;100080.44;5079912;28;19913;-43
2023/05/11 11:42:18;;;;;;;;;;;;;;;17.83;43.32;100083.88;5079430;28;19953;-43
2023/05/11 11:44:44;;;;;;;;;;;;;;;17.74;43.69;100082.63;5091861;28;19916;-42
2023/05/11 11:47:09;;;;;;;;;;;;;;;17.69;43.54;100069.09;5091742;28;20311;-46
2023/05/11 11:49:36;;;;;;;;;;;;;;;18.10;43.49;100069.81;5091684;28;19912;-46
2023/05/11 11:52:02;;;;;;;;;;;;;;;19.35;41.22;100061.25;5091979;28;20003;-42
2023/05/11 11:54:38;;;;;;;;;;;;;;;19.45;39.51;100068.63;5091301;28;19923;-46
2023/05/11 11:57:03;;;;;;;;;;;;;;;18.93;42.05;100067.25;5091606;28;20402;-41
2023/05/11 11:59:29;;;;;;;;;;;;;;;18.82;42.32;100074.38;5089376;28;19916;-42
2023/05/11 12:01:55;;;;;;;;;;;;;;;18.54;41.95;100069.91;5092320;28;20443;-42
2023/05/11 12:04:35;;;;;;;;;;;;;;;18.38;42.31;100054.59;5091695;28;20013;-42
2023/05/11 12:07:02;;;;;;;;;;;;;;;18.40;42.60;100052.47;5091249;28;19954;-42
2023/05/11 12:09:27;;;;;;;;;;;;;;;18.88;42.38;100059.88;5091140;28;19912;-43
2023/05/11 12:11:53;;;;;;;;;;;;;;;18.76;41.99;100054.59;5091457;28;19919;-43
2023/05/11 12:14:19;;;;;;;;;;;;;;;18.67;41.27;100045.28;5091652;28;19919;-42
2023/05/11 12:16:58;;;;;;;;;;;;;;;18.60;42.05;100035.75;5091137;28;19912;-42
2023/05/11 12:19:23;;;;;;;;;;;;;;;18.71;41.68;100037.53;5091356;28;19995;-42
2023/05/11 12:21:49;;;;;;;;;;;;;;;18.79;41.79;100037.13;5091428;28;20359;-42
2023/05/11 12:24:14;;;;;;;;;;;;;;;19.51;40.42;100037.91;5091169;28;19920;-43
2023/05/11 12:26:40;;;;;;;;;;;;;;;19.12;41.82;100029.97;5090948;28;19920;-42
2023/05/11 12:29:06;;;;;;;;;;;;;;;19.17;40.81;100026.50;5090982;28;19999;-42
2023/05/11 12:31:35;;;;;;;;;;;;;;;19.48;39.03;100009.56;5091017;28;19916;-42
2023/05/11 12:34:00;;;;;;;;;;;;;;;19.24;39.73;100000.16;5090316;28;20319;-42